Time;durP1;ratioP1;P1;durP2;ratioP2;P2;SDS_P1;SDS_P2;PMS_P1;PMS_P2;Temp;Humidity;BMP_temperature;BMP_pressure;BME280_temperature;BME280_humidity;BME280_pressure;Samples;Min_cycle;Max_cycle;Signal;HPM_P1;HPM_P2
2023/05/19 00:01:27;;;;;;;12.95;3.70;;;;;;;13.71;78.82;99427.91;4918942;29;20031;-91
2023/05/19 00:03:56;;;;;;;5.82;3.85;;;;;;;13.72;78.77;99427.66;4925566;29;20130;-91
2023/05/19 00:06:31;;;;;;;8.23;4.18;;;;;;;13.74;78.71;99428.16;4910216;29;20043;-91
2023/05/19 00:08:59;;;;;;;4.90;4.20;;;;;;;13.63;78.74;99418.53;4910177;29;20093;-91
2023/05/19 00:11:25;;;;;;;6.10;3.72;;;;;;;13.68;79.02;99439.34;4941242;29;20177;-91
2023/05/19 00:13:55;;;;;;;7.30;3.60;;;;;;;13.53;79.05;99421.38;4925477;29;20491;-91
2023/05/19 00:16:21;;;;;;;7.05;3.80;;;;;;;13.63;79.13;99436.66;4909843;29;20066;-91
2023/05/19 00:18:47;;;;;;;6.95;4.10;;;;;;;13.55;78.88;99432.72;4925483;29;20039;-91
2023/05/19 00:21:12;;;;;;;6.95;3.88;;;;;;;13.42;78.76;99423.34;4925003;29;20027;-91
2023/05/19 00:23:38;;;;;;;4.38;3.58;;;;;;;13.38;78.83;99419.59;4941402;29;20469;-92
2023/05/19 00:26:03;;;;;;;7.35;3.95;;;;;;;13.34;78.94;99419.38;4925990;29;20031;-91
2023/05/19 00:28:29;;;;;;;6.75;4.25;;;;;;;13.29;79.50;99424.84;4925599;29;20023;-91
2023/05/19 00:30:55;;;;;;;8.23;3.75;;;;;;;13.21;79.18;99408.41;4925108;29;20039;-91
2023/05/19 00:33:20;;;;;;;5.93;3.47;;;;;;;13.17;79.19;99410.84;4941814;29;20055;-91
2023/05/19 00:35:46;;;;;;;5.68;3.85;;;;;;;13.07;79.48;99405.53;4925443;29;20027;-91
2023/05/19 00:38:11;;;;;;;6.22;3.83;;;;;;;13.08;79.35;99413.38;4940951;29;20031;-91
2023/05/19 00:40:37;;;;;;;4.72;3.50;;;;;;;13.20;78.85;99433.81;4924979;29;20023;-91
2023/05/19 00:43:04;;;;;;;5.15;3.75;;;;;;;13.12;78.55;99421.72;4941064;29;20086;-91
2023/05/19 00:45:29;;;;;;;3.83;3.42;;;;;;;13.06;78.96;99418.25;4925316;29;20085;-91
2023/05/19 00:47:55;;;;;;;8.30;3.50;;;;;;;12.95;79.27;99405.94;4909345;29;20027;-91
2023/05/19 00:50:20;;;;;;;5.10;4.30;;;;;;;12.88;80.19;99416.25;4924326;28;20038;-91
2023/05/19 00:52:46;;;;;;;6.05;3.70;;;;;;;12.92;80.63;99428.09;4909007;29;20082;-90
2023/05/19 00:55:12;;;;;;;4.97;3.75;;;;;;;12.87;81.02;99423.53;4925014;29;20030;-91
2023/05/19 00:57:38;;;;;;;6.35;3.88;;;;;;;12.85;81.14;99428.44;4925257;29;20027;-91
2023/05/19 01:00:04;;;;;;;4.72;3.80;;;;;;;12.68;80.97;99396.41;4908884;29;20031;-91
2023/05/19 01:02:31;;;;;;;8.27;4.90;;;;;;;12.68;80.91;99406.41;4925065;29;20095;-91
2023/05/19 01:04:56;;;;;;;7.78;4.20;;;;;;;12.71;80.77;99408.53;4924872;29;20066;-91
2023/05/19 01:07:22;;;;;;;6.40;4.10;;;;;;;12.85;80.94;99428.44;4908733;29;20035;-91
2023/05/19 01:09:48;;;;;;;6.72;4.40;;;;;;;12.72;80.72;99420.94;4908702;29;20125;-91
2023/05/19 01:12:14;;;;;;;10.45;5.05;;;;;;;12.62;80.99;99400.22;4924961;29;20453;-92
2023/05/19 01:14:40;;;;;;;4.50;3.97;;;;;;;12.64;80.84;99403.47;4940366;29;20027;-91
2023/05/19 01:17:26;;;;;;;4.10;3.55;;;;;;;12.83;79.22;99427.91;4940697;29;20549;-90
2023/05/19 01:20:24;;;;;;;3.75;3.35;;;;;;;12.83;78.42;99419.78;4924146;29;20465;-91
2023/05/19 01:23:16;;;;;;;5.38;3.50;;;;;;;12.89;78.67;99426.78;4920342;29;20414;-90
2023/05/19 01:26:09;;;;;;;9.18;3.97;;;;;;;12.90;78.84;99427.56;4925029;29;20498;-90
2023/05/19 01:28:53;;;;;;;4.07;3.35;;;;;;;12.79;78.92;99416.03;4957544;29;20035;-91
2023/05/19 01:31:22;;;;;;;4.55;3.45;;;;;;;12.88;78.99;99419.75;4939884;29;20031;-90
2023/05/19 01:33:48;;;;;;;7.97;3.60;;;;;;;12.74;78.22;99397.97;4908838;29;20043;-90
2023/05/19 01:36:13;;;;;;;4.15;3.47;;;;;;;12.82;78.52;99410.06;4923562;29;20509;-91
2023/05/19 01:38:39;;;;;;;4.80;3.53;;;;;;;12.76;78.13;99402.28;4939786;29;20478;-91
2023/05/19 01:41:05;;;;;;;4.07;3.10;;;;;;;12.82;77.28;99418.16;4923527;29;20031;-91
2023/05/19 01:43:30;;;;;;;3.90;3.15;;;;;;;12.85;78.00;99427.63;4907892;29;20023;-91
2023/05/19 01:45:57;;;;;;;5.82;3.58;;;;;;;12.69;78.28;99414.22;4923682;29;20023;-90
2023/05/19 01:48:23;;;;;;;4.85;3.13;;;;;;;12.86;77.65;99427.31;4923822;29;20028;-91
2023/05/19 01:50:48;;;;;;;7.35;3.55;;;;;;;12.82;77.62;99431.69;4907975;29;20038;-90
2023/05/19 01:53:14;;;;;;;5.30;3.47;;;;;;;12.74;77.18;99422.28;4907507;29;20034;-90
2023/05/19 01:55:48;;;;;;;5.68;3.63;;;;;;;12.92;77.51;99445.13;4923647;29;20035;-90
2023/05/19 01:58:36;;;;;;;5.63;3.47;;;;;;;12.99;77.60;99455.63;4908091;29;20091;-90
2023/05/19 02:01:04;;;;;;;6.30;3.50;;;;;;;13.06;77.49;99456.09;4939061;29;20027;-90
2023/05/19 02:03:29;;;;;;;5.38;3.33;;;;;;;13.00;77.65;99461.84;4938301;29;20039;-90
2023/05/19 02:06:02;;;;;;;6.32;3.45;;;;;;;12.69;78.44;99430.41;4956537;29;20162;-90
2023/05/19 02:08:51;;;;;;;5.15;3.63;;;;;;;12.88;77.32;99449.47;4924396;29;20030;-90
2023/05/19 02:11:21;;;;;;;5.72;3.72;;;;;;;12.79;78.25;99447.66;4909349;29;20039;-90
2023/05/19 02:13:47;;;;;;;5.88;3.67;;;;;;;12.71;78.92;99446.34;4924634;29;20418;-91
2023/05/19 02:16:13;;;;;;;4.90;3.72;;;;;;;12.77;78.46;99452.53;4907199;29;20034;-90
2023/05/19 02:18:38;;;;;;;8.75;3.70;;;;;;;12.80;78.31;99447.34;4923229;29;20028;-91
2023/05/19 02:21:11;;;;;;;7.75;3.72;;;;;;;12.64;79.17;99451.28;4923234;29;20027;-91
2023/05/19 02:23:37;;;;;;;8.02;4.10;;;;;;;12.81;79.05;99475.22;4924275;29;20031;-91
2023/05/19 02:26:03;;;;;;;6.07;4.25;;;;;;;12.70;79.05;99460.94;4939104;29;20027;-91
2023/05/19 02:28:28;;;;;;;5.18;3.95;;;;;;;12.60;79.12;99451.03;4906677;29;20131;-90
2023/05/19 02:30:56;;;;;;;5.55;3.85;;;;;;;12.74;79.07;99478.19;4938757;29;20038;-90
2023/05/19 02:33:24;;;;;;;6.70;4.35;;;;;;;12.48;79.42;99464.88;4925682;29;20039;-96
2023/05/19 02:35:50;;;;;;;9.15;4.05;;;;;;;12.46;79.52;99475.13;4909812;29;20031;-95
2023/05/19 02:38:16;;;;;;;4.72;3.90;;;;;;;12.46;79.48;99480.53;4910123;29;20394;-92
2023/05/19 02:40:42;;;;;;;5.93;4.25;;;;;;;12.44;79.57;99476.50;4925213;29;20050;-96
2023/05/19 02:43:07;;;;;;;4.90;4.13;;;;;;;12.39;80.12;99488.16;4908366;29;20034;-96
2023/05/19 02:45:33;;;;;;;5.95;3.97;;;;;;;12.32;80.17;99493.03;4924300;29;20049;-95
2023/05/19 02:47:58;;;;;;;7.15;4.18;;;;;;;12.37;80.24;99497.59;4907985;29;20510;-96
2023/05/19 02:50:24;;;;;;;7.10;4.00;;;;;;;12.32;80.06;99491.13;4924285;29;20122;-96
2023/05/19 02:52:51;;;;;;;6.35;4.35;;;;;;;12.24;80.51;99483.63;4907912;29;20034;-95
2023/05/19 02:55:16;;;;;;;5.72;4.65;;;;;;;12.31;80.61;99504.91;4909268;29;20031;-95
2023/05/19 02:57:42;;;;;;;6.97;4.57;;;;;;;12.17;81.02;99504.69;4924684;29;20030;-96
2023/05/19 03:00:08;;;;;;;8.98;4.53;;;;;;;12.20;81.53;99523.06;4924039;29;20485;-94
2023/05/19 03:02:34;;;;;;;7.72;4.43;;;;;;;12.10;80.77;99488.00;4908154;29;20020;-95
2023/05/19 03:05:02;;;;;;;5.70;4.40;;;;;;;12.21;80.64;99491.47;4907698;29;20501;-95
2023/05/19 03:07:27;;;;;;;6.90;4.05;;;;;;;12.39;80.25;99512.44;4910177;29;20031;-95
2023/05/19 03:09:53;;;;;;;6.78;4.35;;;;;;;12.23;80.09;99490.09;4909132;29;20110;-95
2023/05/19 03:12:18;;;;;;;11.68;4.55;;;;;;;12.19;80.28;99480.13;4924627;29;20031;-95
2023/05/19 03:14:44;;;;;;;6.55;3.97;;;;;;;12.35;80.49;99511.38;4925915;29;20027;-95
2023/05/19 03:17:09;;;;;;;5.53;4.20;;;;;;;12.45;79.94;99518.63;4912839;29;20391;-96
2023/05/19 03:19:35;;;;;;;9.20;4.32;;;;;;;12.23;80.36;99506.28;4913183;29;20026;-95
2023/05/19 03:22:00;;;;;;;7.20;4.70;;;;;;;12.10;81.03;99504.19;4927776;29;20034;-95
2023/05/19 03:24:26;;;;;;;9.68;4.68;;;;;;;12.23;81.12;99538.69;4928734;29;20027;-96
2023/05/19 03:26:54;;;;;;;7.43;4.82;;;;;;;12.12;80.93;99529.03;4913108;29;20030;-96
2023/05/19 03:29:20;;;;;;;7.85;4.72;;;;;;;12.15;81.29;99536.56;4913836;29;20086;-95
2023/05/19 03:31:45;;;;;;;7.90;4.95;;;;;;;12.26;81.06;99551.63;4910719;29;20126;-90
2023/05/19 03:34:11;;;;;;;6.35;4.43;;;;;;;12.39;80.71;99555.66;4926432;29;20031;-90
2023/05/19 03:36:38;;;;;;;5.45;4.28;;;;;;;12.36;80.21;99537.28;4925975;29;20031;-90
2023/05/19 03:39:05;;;;;;;8.93;4.72;;;;;;;12.32;80.41;99530.81;4926932;29;20023;-90
2023/05/19 03:41:30;;;;;;;6.68;4.57;;;;;;;12.47;80.12;99529.94;4941615;29;20019;-90
2023/05/19 03:43:56;;;;;;;4.97;3.92;;;;;;;12.42;80.30;99524.59;4942072;29;20050;-93
2023/05/19 03:46:21;;;;;;;5.60;4.22;;;;;;;12.62;80.06;99551.50;4927179;29;20023;-92
2023/05/19 03:48:46;;;;;;;10.95;5.32;;;;;;;12.37;81.54;99547.03;4911931;29;20023;-94
2023/05/19 03:51:12;;;;;;;9.02;4.63;;;;;;;12.23;80.76;99514.41;4926867;29;20043;-93
2023/05/19 03:56:29;;;;;;;9.65;5.82;;;;;;;12.66;79.61;99559.88;4918554;29;20126;-93
2023/05/19 03:58:55;;;;;;;5.78;4.60;;;;;;;12.74;79.82;99551.97;4910459;29;20489;-92
2023/05/19 04:01:20;;;;;;;11.68;4.97;;;;;;;12.99;79.05;99565.63;4926407;29;20030;-92
2023/05/19 04:03:46;;;;;;;14.70;5.45;;;;;;;13.06;78.64;99561.53;4910171;29;20040;-92
2023/05/19 04:06:17;;;;;;;17.30;5.93;;;;;;;12.91;78.89;99557.03;4912749;29;20039;-93
2023/05/19 04:08:43;;;;;;;12.48;6.30;;;;;;;12.87;79.16;99552.47;4927271;29;20085;-93
2023/05/19 04:11:08;;;;;;;11.68;5.93;;;;;;;12.94;79.62;99556.44;4910580;29;20035;-92
2023/05/19 04:13:34;;;;;;;19.42;6.88;;;;;;;12.93;79.39;99551.34;4926338;29;20552;-93
2023/05/19 04:16:00;;;;;;;11.13;5.70;;;;;;;13.05;78.83;99546.41;4927124;29;20023;-93
2023/05/19 04:18:25;;;;;;;15.25;9.52;;;;;;;13.04;78.99;99542.06;4926387;29;20026;-93
2023/05/19 04:20:51;;;;;;;7.53;5.28;;;;;;;13.27;78.26;99554.06;4941540;29;20027;-93
2023/05/19 04:23:16;;;;;;;12.15;5.72;;;;;;;13.39;77.54;99575.41;4926630;29;20027;-91
2023/05/19 04:25:42;;;;;;;10.85;6.03;;;;;;;13.35;77.62;99550.00;4926261;29;20063;-92
2023/05/19 04:28:07;;;;;;;13.45;6.00;;;;;;;13.47;77.37;99547.75;4911301;29;20122;-92
2023/05/19 04:30:33;;;;;;;12.25;5.47;;;;;;;13.48;77.60;99552.03;4925495;29;20122;-92
2023/05/19 04:32:59;;;;;;;9.63;4.57;;;;;;;13.58;75.76;99547.66;4926331;29;20023;-93
2023/05/19 04:35:26;;;;;;;10.75;4.05;;;;;;;13.54;75.08;99534.69;4909666;29;20024;-91
2023/05/19 04:37:53;;;;;;;9.90;4.80;;;;;;;13.75;75.61;99545.31;4888146;29;20518;-92
2023/05/19 04:40:22;;;;;;;11.70;5.18;;;;;;;13.83;74.94;99558.25;4872779;29;20028;-91
2023/05/19 04:42:51;;;;;;;9.45;5.43;;;;;;;13.80;75.95;99536.34;4881977;29;20020;-92
2023/05/19 04:45:24;;;;;;;12.35;5.97;;;;;;;13.99;76.17;99560.81;4902554;29;20562;-93
2023/05/19 04:47:56;;;;;;;9.98;5.32;;;;;;;14.01;75.84;99553.19;4887984;29;20032;-93
2023/05/19 04:50:22;;;;;;;6.50;4.53;;;;;;;14.23;74.34;99575.16;4888522;29;20024;-93
2023/05/19 04:52:48;;;;;;;9.02;4.95;;;;;;;14.20;74.05;99553.28;4871463;29;20483;-91
2023/05/19 04:55:14;;;;;;;8.55;4.88;;;;;;;14.30;74.22;99564.00;4886384;29;20032;-91
2023/05/19 04:57:40;;;;;;;6.82;4.55;;;;;;;14.57;72.84;99578.88;4906647;29;20051;-94
2023/05/19 05:00:12;;;;;;;11.43;5.43;;;;;;;14.52;74.48;99590.53;4890634;29;20028;-93
2023/05/19 05:02:37;;;;;;;10.73;4.70;;;;;;;14.43;74.13;99566.00;4892212;29;20036;-93
2023/05/19 05:05:04;;;;;;;11.75;7.13;;;;;;;14.65;73.43;99592.59;4923768;29;20052;-94
2023/05/19 05:07:30;;;;;;;7.35;4.32;;;;;;;14.70;74.60;99586.31;4874731;29;20380;-94
2023/05/19 05:09:55;;;;;;;6.15;4.18;;;;;;;14.66;72.74;99567.09;4874104;29;20029;-95
2023/05/19 05:12:21;;;;;;;9.13;5.75;;;;;;;14.71;74.09;99556.22;4877616;29;20036;-95
2023/05/19 05:14:47;;;;;;;7.43;5.07;;;;;;;14.92;73.15;99569.47;4889527;29;20118;-91
2023/05/19 05:17:13;;;;;;;10.45;5.57;;;;;;;15.17;72.45;99592.72;4901110;29;20844;-93
2023/05/19 05:19:39;;;;;;;5.40;4.18;;;;;;;15.34;70.76;99597.63;4909511;29;20035;-96
2023/05/19 05:22:06;;;;;;;11.48;6.32;;;;;;;15.36;70.41;99582.66;4894736;29;20042;-95
2023/05/19 05:24:33;;;;;;;12.80;7.85;;;;;;;15.53;69.55;99592.19;4927641;29;20023;-95
2023/05/19 05:27:00;;;;;;;6.32;5.15;;;;;;;15.57;68.66;99585.84;4891775;29;20028;-96
2023/05/19 05:29:30;;;;;;;15.38;5.47;;;;;;;15.69;69.22;99585.41;4876295;29;20036;-96
2023/05/19 05:31:56;;;;;;;6.20;4.53;;;;;;;15.65;68.95;99581.66;4906553;29;20182;-90
2023/05/19 05:34:22;;;;;;;13.18;4.70;;;;;;;15.94;68.22;99608.63;4923046;29;20118;-90
2023/05/19 05:36:48;;;;;;;11.82;4.93;;;;;;;15.84;67.58;99595.22;4935741;29;20028;-91
2023/05/19 05:39:13;;;;;;;8.85;5.35;;;;;;;15.87;67.74;99583.75;4924128;29;20501;-90
2023/05/19 05:41:41;;;;;;;6.53;4.80;;;;;;;15.90;67.53;99590.50;4932015;29;20054;-88
2023/05/19 05:44:08;;;;;;;7.10;4.75;;;;;;;16.02;67.84;99590.00;4929064;29;20024;-88
2023/05/19 05:46:34;;;;;;;8.05;4.75;;;;;;;15.95;66.87;99585.78;4912167;29;20073;-86
2023/05/19 05:49:00;;;;;;;8.20;4.60;;;;;;;16.08;66.62;99596.97;4893881;29;20059;-88
2023/05/19 05:51:26;;;;;;;9.93;5.85;;;;;;;16.20;66.15;99601.94;4902000;29;20107;-87
2023/05/19 05:53:53;;;;;;;8.82;4.90;;;;;;;16.19;65.99;99612.00;4906451;29;20063;-87
2023/05/19 05:56:18;;;;;;;12.20;8.13;;;;;;;16.22;65.55;99603.22;4884244;29;20032;-87
2023/05/19 05:58:44;;;;;;;11.85;5.85;;;;;;;16.29;65.40;99611.81;4885687;29;20028;-91
2023/05/19 06:01:33;;;;;;;8.93;5.40;;;;;;;16.17;65.13;99609.56;4872745;29;20028;-92
2023/05/19 06:04:02;;;;;;;8.18;5.00;;;;;;;16.12;65.63;99598.81;4890951;29;20040;-91
2023/05/19 06:06:29;;;;;;;7.20;5.63;;;;;;;16.13;65.49;99603.13;4892415;29;20041;-91
2023/05/19 06:08:58;;;;;;;9.13;4.90;;;;;;;16.16;65.63;99599.81;4889043;29;20084;-91
2023/05/19 06:11:23;;;;;;;9.20;4.70;;;;;;;16.34;65.08;99613.63;4895965;29;20107;-89
2023/05/19 06:13:51;;;;;;;7.57;5.65;;;;;;;16.39;65.47;99605.34;4925867;29;20447;-93
2023/05/19 06:16:17;;;;;;;7.18;5.20;;;;;;;16.37;65.77;99602.13;4890782;29;20032;-90
2023/05/19 06:18:42;;;;;;;10.75;6.15;;;;;;;16.37;65.50;99610.28;4921687;29;20036;-90
2023/05/19 06:21:12;;;;;;;9.15;5.90;;;;;;;16.53;64.93;99614.31;4903664;29;20083;-88
2023/05/19 06:23:38;;;;;;;9.73;5.32;;;;;;;16.66;64.69;99614.63;4884252;29;20514;-90
2023/05/19 06:26:04;;;;;;;7.78;5.63;;;;;;;16.75;63.80;99613.63;4869626;29;20055;-91
2023/05/19 06:28:30;;;;;;;11.02;6.05;;;;;;;16.96;63.54;99630.34;4885255;29;20117;-91
2023/05/19 06:30:56;;;;;;;8.32;5.75;;;;;;;16.85;63.53;99619.97;4885411;29;20043;-90
2023/05/19 06:33:22;;;;;;;18.88;8.80;;;;;;;16.90;63.44;99611.72;4908456;29;20036;-90
2023/05/19 06:35:48;;;;;;;8.05;5.82;;;;;;;17.03;62.09;99612.81;4911402;29;20052;-91
2023/05/19 06:38:17;;;;;;;8.52;5.35;;;;;;;17.19;62.67;99616.00;4911466;29;20055;-96
2023/05/19 06:41:04;;;;;;;8.30;5.80;;;;;;;17.28;62.51;99636.72;4902967;29;20523;-94
2023/05/19 06:43:33;;;;;;;7.80;5.65;;;;;;;17.16;63.14;99612.78;5230596;23;20307;-96
2023/05/19 06:45:59;;;;;;;8.30;5.68;;;;;;;17.38;62.90;99631.03;4915938;29;20494;-95
2023/05/19 06:48:25;;;;;;;11.40;6.43;;;;;;;17.50;61.57;99622.34;4911189;29;20109;-94
2023/05/19 06:50:54;;;;;;;8.88;5.40;;;;;;;17.31;61.93;99617.06;4898506;29;20036;-96
2023/05/19 06:53:20;;;;;;;10.15;6.53;;;;;;;17.34;61.91;99635.50;4928469;29;20550;-95
2023/05/19 06:55:52;;;;;;;8.40;6.15;;;;;;;17.46;61.62;99631.44;4896468;29;20032;-94
2023/05/19 06:58:20;;;;;;;9.85;6.35;;;;;;;17.35;61.47;99625.44;4906277;29;20391;-95
2023/05/19 07:00:53;;;;;;;9.68;6.15;;;;;;;17.48;61.17;99621.03;4888353;29;20396;-96
2023/05/19 07:03:24;;;;;;;8.63;5.70;;;;;;;17.65;61.26;99614.91;4895183;29;20031;-96
2023/05/19 07:05:50;;;;;;;10.90;5.97;;;;;;;17.75;60.14;99626.38;4929315;29;20058;-96
2023/05/19 07:08:16;;;;;;;10.30;6.60;;;;;;;17.84;59.78;99620.19;4919702;29;20039;-96
2023/05/19 07:10:46;;;;;;;11.45;6.53;;;;;;;17.92;59.17;99633.88;4938299;29;20027;-96
2023/05/19 07:13:12;;;;;;;14.43;6.47;;;;;;;18.06;59.57;99635.72;4929147;29;20036;-95
2023/05/19 07:15:40;;;;;;;10.20;7.13;;;;;;;18.24;59.30;99639.34;4904758;29;20036;-96
2023/05/19 07:18:18;;;;;;;9.55;5.88;;;;;;;18.28;58.65;99618.50;4904514;29;20039;-96
2023/05/19 07:20:44;;;;;;;11.25;6.75;;;;;;;18.45;57.83;99637.69;4900764;29;20052;-96
2023/05/19 07:23:09;;;;;;;9.40;6.45;;;;;;;18.42;58.02;99635.56;4897312;29;20031;-94
2023/05/19 07:25:35;;;;;;;21.60;12.95;;;;;;;18.51;57.39;99633.72;4896196;29;20095;-96
2023/05/19 07:28:04;;;;;;;18.83;7.78;;;;;;;18.69;56.83;99631.03;4908704;29;20051;-94
2023/05/19 07:30:30;;;;;;;11.80;8.60;;;;;;;18.87;55.58;99635.44;4896120;29;20054;-95
2023/05/19 07:32:55;;;;;;;12.80;8.00;;;;;;;19.02;55.34;99628.72;4891844;29;20047;-95
2023/05/19 07:35:33;;;;;;;8.95;6.32;;;;;;;18.74;54.94;99623.50;4931810;29;20038;-96
2023/05/19 07:37:59;;;;;;;12.15;6.97;;;;;;;19.04;55.17;99661.97;4934410;29;20525;-95
2023/05/19 07:40:51;;;;;;;10.73;7.38;;;;;;;18.97;55.17;99640.59;4932203;29;20462;-94
2023/05/19 07:43:22;;;;;;;9.90;6.45;;;;;;;18.82;56.10;99637.50;5023663;23;20080;-94
2023/05/19 07:45:52;;;;;;;12.98;6.43;;;;;;;18.87;56.50;99631.94;5219900;23;20066;-93
2023/05/19 07:48:24;;;;;;;13.23;7.68;;;;;;;19.24;55.79;99666.03;4880888;29;20095;-96
2023/05/19 07:50:54;;;;;;;10.82;6.82;;;;;;;19.06;54.77;99632.44;4890064;29;20132;-95
2023/05/19 07:53:23;;;;;;;10.43;6.38;;;;;;;19.19;55.82;99638.88;4832878;29;20517;-90
2023/05/19 07:55:48;;;;;;;10.07;6.35;;;;;;;19.20;55.21;99626.03;4811803;29;20037;-92
2023/05/19 07:58:14;;;;;;;8.02;5.88;;;;;;;19.46;55.03;99631.50;4826081;29;20065;-92
2023/05/19 08:00:41;;;;;;;16.88;7.60;;;;;;;19.35;54.24;99645.47;4827265;29;20109;-92
2023/05/19 08:03:08;;;;;;;12.55;6.82;;;;;;;19.36;55.24;99651.72;4843630;29;20596;-91
2023/05/19 08:05:38;;;;;;;10.38;6.07;;;;;;;19.32;54.98;99628.91;4835096;29;20561;-94
2023/05/19 08:10:48;;;;;;;10.93;6.82;;;;;;;19.65;53.62;99653.84;5191903;23;20071;-95
2023/05/19 08:13:14;;;;;;;10.32;6.63;;;;;;;19.61;54.20;99660.25;4899527;29;20020;-94
2023/05/19 08:15:41;;;;;;;8.68;6.25;;;;;;;19.51;53.68;99645.81;4897252;29;20031;-96
2023/05/19 08:18:32;;;;;;;10.27;6.70;;;;;;;19.81;52.98;99664.31;4917660;29;20023;-96
2023/05/19 08:24:21;;;;;;;10.13;6.82;;;;;;;20.01;53.57;99654.63;5227919;23;20087;-94
2023/05/19 08:30:04;;;;;;;10.40;6.22;;;;;;;19.96;54.16;99663.78;5089391;23;20047;-95
2023/05/19 08:32:30;;;;;;;9.73;6.10;;;;;;;19.87;54.44;99631.00;4911143;29;20039;-90
2023/05/19 08:34:58;;;;;;;9.93;6.18;;;;;;;19.77;53.67;99628.63;4902128;29;20036;-92
2023/05/19 08:37:23;;;;;;;8.60;6.13;;;;;;;19.77;54.08;99634.09;4923893;29;20036;-92
2023/05/19 08:39:49;;;;;;;11.68;7.00;;;;;;;19.51;55.55;99640.34;4893051;29;20127;-94
2023/05/19 08:42:15;;;;;;;12.15;6.63;;;;;;;19.77;54.00;99645.00;4892445;29;20106;-93
2023/05/19 08:44:42;;;;;;;12.30;6.38;;;;;;;19.74;54.23;99645.66;4893575;29;20102;-91
2023/05/19 08:47:22;;;;;;;8.68;6.38;;;;;;;19.80;53.83;99627.97;4890660;29;20563;-95
2023/05/19 08:49:52;;;;;;;12.50;7.13;;;;;;;20.06;53.72;99641.59;4894885;29;20028;-95
2023/05/19 08:53:00;;;;;;;11.30;6.30;;;;;;;20.11;53.37;99652.38;4899401;29;20044;-96
2023/05/19 08:55:52;;;;;;;11.20;6.75;;;;;;;20.05;53.77;99648.19;4925971;29;20032;-96
2023/05/19 08:58:20;;;;;;;12.65;7.18;;;;;;;20.07;55.19;99648.66;4906036;29;20028;-95
2023/05/19 09:00:47;;;;;;;9.23;6.72;;;;;;;20.09;53.95;99623.75;4878859;29;20032;-96
2023/05/19 09:03:14;;;;;;;17.17;7.28;;;;;;;20.39;53.69;99628.13;4878643;29;20083;-96
2023/05/19 09:05:42;;;;;;;9.27;6.07;;;;;;;20.49;53.21;99639.84;4905737;29;20486;-95
2023/05/19 09:08:10;;;;;;;9.07;6.75;;;;;;;20.46;53.04;99611.22;4893413;29;20474;-96
2023/05/19 09:14:53;;;;;;;15.98;6.65;;;;;;;20.82;52.77;99653.72;4947001;29;20043;-96
2023/05/19 09:17:19;;;;;;;11.60;6.50;;;;;;;20.69;52.27;99617.25;4944494;29;20493;-88
2023/05/19 09:19:46;;;;;;;9.98;7.07;;;;;;;20.86;52.88;99634.72;4931256;29;20026;-89
2023/05/19 09:22:15;;;;;;;12.35;6.82;;;;;;;20.88;52.09;99633.25;4908844;29;20027;-90
2023/05/19 09:24:40;;;;;;;10.73;7.15;;;;;;;21.02;51.89;99637.66;4924491;29;20023;-89
2023/05/19 09:27:06;;;;;;;11.45;6.80;;;;;;;20.94;52.09;99628.41;4916585;29;20401;-91
2023/05/19 09:29:31;;;;;;;12.63;7.03;;;;;;;20.99;51.87;99630.94;4913325;29;20043;-92
2023/05/19 09:32:03;;;;;;;10.43;7.47;;;;;;;21.05;51.98;99648.75;4918745;29;20067;-92
2023/05/19 09:34:28;;;;;;;13.35;6.60;;;;;;;20.88;51.65;99635.19;4908079;29;20031;-91
2023/05/19 09:36:54;;;;;;;8.25;6.32;;;;;;;20.93;51.64;99629.50;4909003;29;20098;-89
2023/05/19 09:39:21;;;;;;;14.20;6.70;;;;;;;21.02;51.62;99629.44;4925837;29;20094;-93
2023/05/19 09:41:54;;;;;;;13.02;6.55;;;;;;;21.20;51.68;99637.22;4924685;29;20031;-93
2023/05/19 09:44:20;;;;;;;9.20;6.72;;;;;;;21.24;50.65;99645.56;4925495;29;20035;-90
2023/05/19 09:46:55;;;;;;;9.65;6.85;;;;;;;20.90;51.24;99636.47;4940964;29;20031;-91
2023/05/19 09:49:21;;;;;;;11.85;7.07;;;;;;;20.93;50.58;99624.84;4935544;29;20066;-91
2023/05/19 09:52:04;;;;;;;9.43;6.43;;;;;;;21.01;48.94;99601.28;4912619;29;20048;-92
2023/05/19 09:54:31;;;;;;;8.45;6.55;;;;;;;21.07;48.31;99601.91;4898393;29;20051;-91
2023/05/19 09:57:06;;;;;;;10.95;6.55;;;;;;;21.18;50.35;99627.72;4899580;29;20034;-91
2023/05/19 09:59:32;;;;;;;10.55;7.13;;;;;;;21.29;51.67;99622.66;4924987;29;20023;-91
2023/05/19 10:02:06;;;;;;;10.85;6.63;;;;;;;21.08;51.17;99607.00;4927620;29;20046;-88
2023/05/19 10:04:31;;;;;;;9.35;6.60;;;;;;;21.22;50.71;99619.66;4929296;29;20027;-90
2023/05/19 10:07:00;;;;;;;10.20;6.50;;;;;;;21.06;51.14;99611.22;4894978;29;20027;-93
2023/05/19 10:09:27;;;;;;;13.30;6.80;;;;;;;21.12;51.07;99634.53;4909294;29;20024;-95
2023/05/19 10:11:56;;;;;;;9.63;6.53;;;;;;;21.07;51.33;99619.13;4927090;29;20034;-94
2023/05/19 10:14:26;;;;;;;10.70;6.50;;;;;;;20.97;51.68;99608.56;4927826;29;20027;-95
2023/05/19 10:16:52;;;;;;;9.02;6.45;;;;;;;21.19;51.50;99612.91;4904823;29;20090;-91
2023/05/19 10:19:25;;;;;;;11.35;6.65;;;;;;;21.24;51.20;99600.97;4925407;29;20399;-89
2023/05/19 10:21:51;;;;;;;10.25;6.95;;;;;;;21.32;50.67;99625.53;4913719;29;20031;-93
2023/05/19 10:24:16;;;;;;;9.60;7.18;;;;;;;21.25;50.42;99608.03;4907101;29;20778;-89
2023/05/19 10:27:04;;;;;;;10.00;6.75;;;;;;;21.38;51.88;99607.75;4919134;29;20027;-90
2023/05/19 10:29:32;;;;;;;11.63;6.47;;;;;;;21.36;51.04;99590.06;4900453;29;20073;-91
2023/05/19 10:31:59;;;;;;;10.93;7.65;;;;;;;21.44;51.05;99596.66;4892167;29;20027;-92
2023/05/19 10:34:36;;;;;;;10.65;7.13;;;;;;;21.75;50.34;99599.72;4931387;29;20402;-91
2023/05/19 10:37:40;;;;;;;10.55;7.68;;;;;;;21.81;49.66;99578.41;4927024;29;20031;-91
2023/05/19 10:40:10;;;;;;;14.57;7.13;;;;;;;21.99;49.16;99593.50;4919449;29;20056;-91
2023/05/19 10:43:10;;;;;;;11.60;6.75;;;;;;;22.05;49.76;99596.81;4892063;29;20082;-91
2023/05/19 10:45:50;;;;;;;12.25;7.10;;;;;;;21.77;49.39;99572.78;4921271;29;20031;-90
2023/05/19 10:48:16;;;;;;;13.52;8.02;;;;;;;21.84;49.83;99568.69;4894151;29;20043;-90
2023/05/19 10:50:48;;;;;;;8.80;6.72;;;;;;;21.97;50.43;99590.28;4887933;29;20097;-89
2023/05/19 10:53:18;;;;;;;13.23;7.25;;;;;;;22.00;49.43;99586.09;4888833;29;20032;-87
2023/05/19 10:55:47;;;;;;;8.60;6.70;;;;;;;21.88;49.59;99581.38;4904564;29;20445;-90
2023/05/19 10:58:15;;;;;;;11.13;7.45;;;;;;;21.98;50.38;99549.97;4916949;29;20035;-90
2023/05/19 11:00:41;;;;;;;10.45;6.93;;;;;;;22.27;50.56;99559.97;4897041;29;20151;-90
2023/05/19 11:03:22;;;;;;;11.90;7.50;;;;;;;22.47;48.97;99552.75;4893742;29;20466;-93
2023/05/19 11:05:49;;;;;;;10.60;7.45;;;;;;;22.49;49.34;99538.69;4893578;29;20092;-91
2023/05/19 11:08:16;;;;;;;12.65;7.55;;;;;;;22.71;46.94;99540.97;4888916;29;20036;-89
2023/05/19 11:10:45;;;;;;;11.13;6.70;;;;;;;22.80;47.25;99544.38;4888869;29;20403;-91
2023/05/19 11:13:18;;;;;;;10.88;6.95;;;;;;;22.90;47.10;99531.31;4902877;29;20047;-92
2023/05/19 11:15:44;;;;;;;14.13;6.90;;;;;;;23.20;47.52;99545.53;4903831;29;20032;-92
2023/05/19 11:18:14;;;;;;;8.75;6.47;;;;;;;23.35;45.33;99527.53;4888556;29;20039;-93
2023/05/19 11:20:40;;;;;;;8.55;6.45;;;;;;;23.11;46.00;99525.69;4889210;29;20035;-92
2023/05/19 11:23:13;;;;;;;8.18;6.47;;;;;;;22.99;46.26;99529.22;4888327;29;20027;-91
2023/05/19 11:25:56;;;;;;;10.52;7.28;;;;;;;22.97;44.92;99537.00;4923223;29;20032;-92
2023/05/19 11:28:26;;;;;;;8.50;6.65;;;;;;;23.01;44.57;99535.19;4898714;29;20639;-92
2023/05/19 11:30:56;;;;;;;9.23;6.50;;;;;;;23.04;46.10;99534.50;4916187;29;20031;-89
2023/05/19 11:33:25;;;;;;;10.57;6.82;;;;;;;23.07;47.33;99539.28;4912085;29;20023;-91
2023/05/19 11:36:20;;;;;;;10.10;7.13;;;;;;;22.98;46.48;99516.66;4897827;29;20031;-89
2023/05/19 11:38:46;;;;;;;10.55;6.35;;;;;;;23.12;45.44;99510.81;4918529;29;20039;-91
2023/05/19 11:41:11;;;;;;;13.73;7.30;;;;;;;23.27;44.82;99515.53;4897000;29;20035;-92
2023/05/19 11:43:37;;;;;;;12.27;6.82;;;;;;;23.27;46.50;99515.53;4919283;29;20027;-93
2023/05/19 11:46:05;;;;;;;10.43;6.65;;;;;;;23.18;47.26;99509.41;4903492;29;20028;-93
2023/05/19 11:48:36;;;;;;;10.90;6.93;;;;;;;23.27;47.32;99509.25;4905233;29;20391;-92
2023/05/19 11:51:05;;;;;;;11.10;6.82;;;;;;;23.27;46.80;99493.56;4888366;29;20099;-92
2023/05/19 11:53:31;;;;;;;10.07;6.50;;;;;;;23.20;46.76;99498.84;4904355;29;20024;-90